Time;durP1;ratioP1;P1;durP2;ratioP2;P2;SDS_P1;SDS_P2;PMS_P1;PMS_P2;Temp;Humidity;BMP_temperature;BMP_pressure;BME280_temperature;BME280_humidity;BME280_pressure;Samples;Min_cycle;Max_cycle;Signal;HPM_P1;HPM_P2
2022/06/16 00:01:53;;;;;;;4.68;1.83;;;;;;;14.39;100.00;102057.25;4905793;29;20055;-80
2022/06/16 00:04:25;;;;;;;3.50;1.90;;;;;;;14.39;100.00;102066.09;4862245;29;20047;-78
2022/06/16 00:06:55;;;;;;;3.75;1.90;;;;;;;14.39;100.00;102076.69;4906849;29;20160;-79
2022/06/16 00:09:24;;;;;;;3.78;1.60;;;;;;;14.35;100.00;102074.91;4893295;29;20048;-80
2022/06/16 00:11:54;;;;;;;3.22;1.65;;;;;;;14.36;100.00;102070.50;4891179;29;20041;-80
2022/06/16 00:14:27;;;;;;;2.85;1.90;;;;;;;14.36;100.00;102070.50;4888685;29;20164;-80
2022/06/16 00:16:55;;;;;;;4.45;2.10;;;;;;;14.33;100.00;102071.38;4907437;29;20044;-80
2022/06/16 00:19:24;;;;;;;6.13;2.00;;;;;;;14.32;100.00;102069.56;4896111;29;20053;-80
2022/06/16 00:21:52;;;;;;;4.30;1.80;;;;;;;14.30;100.00;102060.72;4900070;28;20047;-80
2022/06/16 00:24:26;;;;;;;5.80;2.20;;;;;;;14.28;100.00;102067.78;4884005;29;20063;-80
2022/06/16 00:26:56;;;;;;;4.53;1.98;;;;;;;14.26;100.00;102074.84;4907740;29;20048;-80
2022/06/16 00:29:25;;;;;;;5.00;2.00;;;;;;;14.20;100.00;102073.03;4887553;29;20422;-80
2022/06/16 00:31:54;;;;;;;7.70;1.90;;;;;;;14.17;100.00;102064.16;4907080;29;20047;-80
2022/06/16 00:34:22;;;;;;;5.60;1.98;;;;;;;14.15;100.00;102076.53;4919752;29;20526;-81
2022/06/16 00:36:52;;;;;;;3.22;2.05;;;;;;;14.13;100.00;102079.16;4860722;29;20055;-80
2022/06/16 00:39:20;;;;;;;4.60;2.00;;;;;;;14.11;100.00;102094.16;4885209;29;20489;-80
2022/06/16 00:41:51;;;;;;;6.65;1.88;;;;;;;14.09;100.00;102098.56;4903547;29;20132;-80
2022/06/16 00:44:23;;;;;;;4.43;2.03;;;;;;;14.08;100.00;102085.28;4905293;29;20044;-80
2022/06/16 00:46:51;;;;;;;4.82;1.98;;;;;;;14.04;100.00;102085.28;4875475;29;20063;-80
2022/06/16 00:49:27;;;;;;;4.57;2.13;;;;;;;14.01;100.00;102072.00;4888100;29;20048;-81
2022/06/16 00:52:03;;;;;;;5.03;1.85;;;;;;;13.97;100.00;102066.63;4877196;29;20040;-81
2022/06/16 00:54:37;;;;;;;3.88;1.75;;;;;;;13.94;100.00;102064.88;4897014;29;20041;-80
2022/06/16 00:57:10;;;;;;;7.00;2.15;;;;;;;13.92;100.00;102069.25;4904110;29;20752;-80
2022/06/16 00:59:38;;;;;;;4.40;1.92;;;;;;;13.88;100.00;102062.16;4907809;29;20490;-80
2022/06/16 01:02:08;;;;;;;3.60;1.70;;;;;;;13.87;100.00;102075.41;4908933;29;20051;-80
2022/06/16 01:04:53;;;;;;;3.42;1.85;;;;;;;13.87;100.00;102083.34;4894258;29;20048;-80
2022/06/16 01:07:30;;;;;;;5.63;2.00;;;;;;;13.85;100.00;102088.63;4866026;29;20048;-80
2022/06/16 01:10:00;;;;;;;3.58;2.10;;;;;;;13.84;100.00;102085.09;4891710;29;20036;-80
2022/06/16 01:15:43;;;;;;;4.72;2.05;;;;;;;13.82;100.00;102080.66;4898230;29;20059;-80
2022/06/16 01:18:46;;;;;;;8.10;2.22;;;;;;;13.79;100.00;102073.56;4894976;29;20052;-80
2022/06/16 01:21:33;;;;;;;4.75;2.20;;;;;;;13.81;100.00;102060.31;4894006;29;20059;-81
2022/06/16 01:24:20;;;;;;;5.32;2.00;;;;;;;13.78;100.00;102055.00;4876781;29;20501;-80
2022/06/16 01:26:51;;;;;;;4.75;2.10;;;;;;;13.79;100.00;102060.31;4899579;29;20393;-80
2022/06/16 01:29:33;;;;;;;4.07;1.95;;;;;;;13.80;100.00;102072.69;4905762;29;20036;-80
2022/06/16 01:32:32;;;;;;;5.10;1.73;;;;;;;13.80;100.00;102080.66;4884261;29;20051;-80
2022/06/16 01:35:11;;;;;;;2.90;1.60;;;;;;;13.82;100.00;102088.63;4908828;29;20052;-80
2022/06/16 01:37:51;;;;;;;3.33;1.65;;;;;;;13.84;100.00;102092.16;4886993;29;20052;-80
2022/06/16 01:40:30;;;;;;;6.65;1.95;;;;;;;13.84;100.00;102093.03;4859223;29;20547;-80
2022/06/16 01:43:12;;;;;;;4.15;1.92;;;;;;;13.86;100.00;102098.34;4909416;29;20047;-80
2022/06/16 01:46:05;;;;;;;5.82;2.15;;;;;;;13.86;100.00;102093.06;4893424;29;20032;-78
2022/06/16 01:48:36;;;;;;;3.17;1.60;;;;;;;13.88;100.00;102090.44;4906480;29;20230;-78
2022/06/16 01:51:25;;;;;;;6.85;2.05;;;;;;;13.87;100.00;102093.94;4892286;29;20060;-80
2022/06/16 01:54:02;;;;;;;4.38;1.98;;;;;;;13.86;100.00;102103.66;4886350;29;20040;-80
2022/06/16 01:56:35;;;;;;;2.83;1.70;;;;;;;13.86;100.00;102111.59;4898241;28;20729;-79
2022/06/16 01:59:10;;;;;;;5.30;1.90;;;;;;;13.87;100.00;102117.78;4893927;29;20063;-78
2022/06/16 02:01:44;;;;;;;3.10;1.60;;;;;;;13.87;100.00;102113.38;4922963;29;20036;-78
2022/06/16 02:04:44;;;;;;;5.65;1.98;;;;;;;13.87;100.00;102116.03;4906202;29;20055;-78
2022/06/16 02:07:19;;;;;;;3.38;1.60;;;;;;;13.87;100.00;102101.91;4891731;29;20041;-80
2022/06/16 02:09:54;;;;;;;4.85;1.52;;;;;;;13.85;100.00;102078.03;4895293;29;20028;-80
2022/06/16 02:15:52;;;;;;;6.22;1.58;;;;;;;13.78;100.00;102078.84;4903988;29;20082;-81
2022/06/16 02:18:25;;;;;;;3.35;1.65;;;;;;;13.76;100.00;102088.53;4905017;29;20047;-80
2022/06/16 02:21:17;;;;;;;3.63;1.50;;;;;;;13.77;100.00;102087.66;4908182;29;20537;-80
2022/06/16 02:23:46;;;;;;;2.60;1.52;;;;;;;13.75;100.00;102086.78;4901429;29;20044;-80
2022/06/16 02:26:17;;;;;;;2.85;1.60;;;;;;;13.74;100.00;102091.19;4860472;29;20378;-80
2022/06/16 02:28:58;;;;;;;3.10;1.42;;;;;;;13.71;100.00;102093.78;4908036;29;20048;-79
2022/06/16 02:31:32;;;;;;;4.63;1.63;;;;;;;13.71;100.00;102092.91;4905314;29;20601;-80
2022/06/16 02:34:12;;;;;;;3.67;1.40;;;;;;;13.68;100.00;102079.63;4909028;29;20067;-80
2022/06/16 02:36:44;;;;;;;4.13;1.65;;;;;;;13.64;100.00;102092.81;4891962;29;20051;-80
2022/06/16 02:39:28;;;;;;;5.38;1.30;;;;;;;13.63;100.00;102084.91;4886033;29;20044;-80
2022/06/16 02:42:18;;;;;;;4.22;1.60;;;;;;;13.63;100.00;102082.25;4886825;29;20389;-80
2022/06/16 02:45:00;;;;;;;3.40;1.67;;;;;;;13.61;100.00;102087.53;4889969;29;20044;-80
2022/06/16 02:48:07;;;;;;;3.38;1.30;;;;;;;13.60;100.00;102083.09;4904915;29;20273;-80
2022/06/16 02:50:44;;;;;;;2.58;1.48;;;;;;;13.60;100.00;102076.91;4917462;29;20043;-80
2022/06/16 02:53:13;;;;;;;3.00;1.40;;;;;;;13.58;100.00;102066.28;4890654;29;20517;-80
2022/06/16 02:55:45;;;;;;;5.10;1.70;;;;;;;13.59;100.00;102076.03;4901158;29;20044;-80
2022/06/16 02:58:19;;;;;;;4.03;1.60;;;;;;;13.60;100.00;102083.09;4875064;29;20059;-80
2022/06/16 03:00:53;;;;;;;3.17;1.60;;;;;;;13.61;100.00;102081.31;4908155;29;20398;-80
2022/06/16 03:03:33;;;;;;;4.28;1.63;;;;;;;13.60;100.00;102077.78;4889401;29;20498;-80
2022/06/16 03:06:12;;;;;;;4.03;1.45;;;;;;;13.60;100.00;102088.38;4905787;29;20044;-80
2022/06/16 03:08:52;;;;;;;2.07;1.30;;;;;;;13.59;100.00;102097.22;4893447;29;20051;-80
2022/06/16 03:11:22;;;;;;;2.75;1.25;;;;;;;13.58;100.00;102105.13;4896679;29;20079;-80
2022/06/16 03:13:50;;;;;;;3.08;1.30;;;;;;;13.58;100.00;102106.00;4841599;29;20402;-79
2022/06/16 03:16:28;;;;;;;3.72;1.95;;;;;;;13.57;100.00;102109.56;4903922;29;20150;-79
2022/06/16 03:18:58;;;;;;;3.50;1.50;;;;;;;13.57;100.00;102106.00;4908275;29;20040;-79
2022/06/16 03:21:29;;;;;;;2.50;1.30;;;;;;;13.56;100.00;102106.88;4904602;29;20607;-79
2022/06/16 03:23:58;;;;;;;4.18;1.92;;;;;;;13.57;100.00;102096.31;4892954;29;20437;-79
2022/06/16 03:26:29;;;;;;;5.63;1.85;;;;;;;13.57;100.00;102103.34;4896758;29;20108;-79
2022/06/16 03:29:00;;;;;;;4.93;1.63;;;;;;;13.58;100.00;102107.78;4876952;29;20055;-79
2022/06/16 03:31:30;;;;;;;5.78;1.80;;;;;;;13.61;100.00;102108.72;4904348;29;20051;-79
2022/06/16 03:33:59;;;;;;;4.13;1.38;;;;;;;13.61;100.00;102114.00;4892831;29;20044;-79
2022/06/16 03:36:35;;;;;;;2.90;1.40;;;;;;;13.65;100.00;102118.47;4904775;29;20230;-79
2022/06/16 03:39:05;;;;;;;3.00;1.80;;;;;;;13.68;100.00;102128.19;4890150;29;20063;-79
2022/06/16 03:41:33;;;;;;;6.85;1.98;;;;;;;13.72;100.00;102135.28;4879576;29;20309;-79
2022/06/16 03:44:05;;;;;;;4.28;1.50;;;;;;;13.76;100.00;102125.63;4838295;29;20367;-79
2022/06/16 03:46:34;;;;;;;2.72;1.50;;;;;;;13.78;100.00;102130.09;4889668;29;20045;-79
2022/06/16 03:49:08;;;;;;;2.67;1.50;;;;;;;13.82;100.00;102129.22;4876843;29;20044;-79
2022/06/16 03:51:45;;;;;;;2.10;1.40;;;;;;;13.87;100.00;102131.03;4878403;29;20257;-79
2022/06/16 03:54:19;;;;;;;2.47;1.80;;;;;;;13.91;100.00;102146.09;4891841;29;20059;-79
2022/06/16 03:56:48;;;;;;;3.40;2.00;;;;;;;13.94;100.00;102147.00;4899408;29;20521;-79
2022/06/16 03:59:21;;;;;;;5.55;2.83;;;;;;;13.99;100.00;102150.59;4842372;29;20051;-79
2022/06/16 04:01:54;;;;;;;6.07;2.35;;;;;;;14.02;100.00;102150.63;4892240;29;20410;-79
2022/06/16 04:04:30;;;;;;;2.97;2.08;;;;;;;14.07;100.00;102141.84;4890046;29;20461;-79
2022/06/16 04:07:00;;;;;;;;;;;;;;;14.08;100.00;102141.84;4891484;29;20052;-79
2022/06/16 04:09:30;;;;;;;4.30;1.52;;;;;;;14.13;100.00;102155.16;4889124;29;19923;-79
2022/06/16 04:12:02;;;;;;;3.78;1.90;;;;;;;14.15;100.00;102156.94;4893976;29;20051;-79
2022/06/16 04:14:31;;;;;;;6.63;1.70;;;;;;;14.17;100.00;102162.25;4851411;29;20040;-79
2022/06/16 04:17:04;;;;;;;3.33;1.67;;;;;;;14.18;100.00;102178.19;4922755;29;20048;-79
2022/06/16 04:20:11;;;;;;;6.22;1.70;;;;;;;14.18;100.00;102172.00;4892764;29;20040;-79
2022/06/16 04:22:41;;;;;;;3.15;1.77;;;;;;;14.18;100.00;102166.69;4907000;29;20048;-79
2022/06/16 04:25:22;;;;;;;5.00;1.67;;;;;;;14.17;100.00;102176.38;4874874;29;20048;-79
2022/06/16 04:27:52;;;;;;;6.85;1.75;;;;;;;14.20;100.00;102168.47;4897048;29;20064;-79
2022/06/16 04:30:22;;;;;;;3.92;1.90;;;;;;;14.20;100.00;102165.81;4864432;29;23070;-81
2022/06/16 04:32:51;;;;;;;5.75;2.40;;;;;;;14.22;100.00;102174.66;4895236;29;20278;-79
2022/06/16 04:35:20;;;;;;;5.25;3.15;;;;;;;14.24;100.00;102174.69;4908409;29;20071;-80
2022/06/16 04:37:59;;;;;;;3.70;2.40;;;;;;;14.24;100.00;102188.81;4895554;29;20044;-80
2022/06/16 04:40:28;;;;;;;3.92;2.05;;;;;;;14.27;100.00;102177.34;4876926;29;20254;-80
2022/06/16 04:43:04;;;;;;;2.92;1.85;;;;;;;14.29;100.00;102175.63;4885980;29;20491;-81
2022/06/16 04:45:32;;;;;;;6.38;1.83;;;;;;;14.30;100.00;102166.78;4865374;29;20074;-81
2022/06/16 04:48:01;;;;;;;2.58;1.58;;;;;;;14.32;100.00;102180.94;4894136;29;20059;-81
2022/06/16 04:50:35;;;;;;;3.22;1.70;;;;;;;14.35;100.00;102183.63;4892382;29;20277;-80
2022/06/16 04:53:05;;;;;;;4.18;1.95;;;;;;;14.35;100.00;102186.28;4908887;29;20051;-80
2022/06/16 04:55:53;;;;;;;3.60;2.63;;;;;;;14.35;100.00;102174.78;4892434;29;20044;-80
2022/06/16 04:58:30;;;;;;;6.93;2.47;;;;;;;14.35;100.00;102178.31;4886279;29;20075;-80
2022/06/16 05:01:19;;;;;;;3.85;3.00;;;;;;;14.35;100.00;102173.03;4852419;29;20612;-80
2022/06/16 05:04:09;;;;;;;4.53;3.00;;;;;;;14.35;100.00;102173.03;4895376;29;20055;-81
2022/06/16 05:06:48;;;;;;;5.80;3.25;;;;;;;14.52;100.00;102167.88;4912349;29;20055;-80
2022/06/16 05:09:23;;;;;;;3.25;2.70;;;;;;;15.36;100.00;102169.28;4912409;29;20521;-80
2022/06/16 05:12:02;;;;;;;5.07;2.70;;;;;;;16.53;100.00;102164.22;4889189;29;20059;-81
2022/06/16 05:14:46;;;;;;;6.72;2.88;;;;;;;17.76;100.00;102176.31;4895103;29;20044;-80
2022/06/16 05:17:25;;;;;;;4.22;2.63;;;;;;;18.81;100.00;102173.78;4827323;29;20266;-81
2022/06/16 05:19:57;;;;;;;2.58;2.13;;;;;;;19.73;100.00;102172.72;4893443;29;20040;-79
2022/06/16 05:22:46;;;;;;;3.65;1.70;;;;;;;20.60;100.00;102180.31;4910050;29;20051;-79
2022/06/16 05:25:52;;;;;;;4.03;2.10;;;;;;;21.10;100.00;102199.94;4898981;29;20052;-79
2022/06/16 05:28:31;;;;;;;2.67;1.80;;;;;;;21.03;99.72;102199.16;4878187;29;20044;-78
2022/06/16 05:31:07;;;;;;;1.95;1.40;;;;;;;21.04;96.86;102208.09;4870997;29;20045;-78
2022/06/16 05:33:43;;;;;;;5.35;1.77;;;;;;;21.61;95.68;102217.72;4846864;29;20239;-81
2022/06/16 05:36:26;;;;;;;3.15;1.83;;;;;;;22.38;92.26;102222.25;4895527;29;20048;-81
2022/06/16 05:39:10;;;;;;;4.95;2.17;;;;;;;22.34;88.59;102219.66;4896151;29;20044;-78
2022/06/16 05:42:02;;;;;;;4.03;1.90;;;;;;;21.75;87.33;102222.78;4894493;29;20281;-81
2022/06/16 05:44:46;;;;;;;3.22;2.13;;;;;;;21.36;87.01;102215.53;4905940;29;20250;-81
2022/06/16 05:47:40;;;;;;;5.55;2.20;;;;;;;21.41;88.38;102221.66;4859791;29;20151;-81
2022/06/16 05:50:09;;;;;;;3.08;1.65;;;;;;;21.60;86.69;102226.66;4908624;29;20044;-80
2022/06/16 05:52:38;;;;;;;3.10;1.80;;;;;;;21.86;84.57;102222.56;4892460;29;20040;-80
2022/06/16 05:55:18;;;;;;;2.15;1.60;;;;;;;21.96;81.98;102221.41;4912311;29;20067;-80
2022/06/16 05:57:46;;;;;;;2.60;1.67;;;;;;;21.87;81.10;102218.94;4891876;29;20044;-80
2022/06/16 06:00:17;;;;;;;;;;;;;;;21.51;77.38;102217.03;4878687;29;20048;-79
2022/06/16 06:03:05;;;;;;;5.18;1.50;;;;;;;21.24;81.22;102215.75;4865177;29;20334;-79
2022/06/16 06:05:40;;;;;;;4.20;1.30;;;;;;;21.07;79.87;102217.88;4892809;29;20048;-79
2022/06/16 06:16:41;;;;;;;2.40;1.20;;;;;;;21.45;77.22;102233.22;4920437;29;20051;-79
2022/06/16 06:19:23;;;;;;;2.67;1.10;;;;;;;21.70;76.71;102233.63;4868830;29;20048;-79
2022/06/16 06:21:59;;;;;;;2.55;0.93;;;;;;;21.99;74.77;102235.66;4918106;28;20270;-79
2022/06/16 06:24:35;;;;;;;2.25;1.00;;;;;;;22.36;72.59;102239.31;4904278;29;20047;-79
2022/06/16 06:27:30;;;;;;;3.13;1.10;;;;;;;22.62;69.45;102243.16;4888786;29;20063;-79
2022/06/16 06:30:11;;;;;;;1.20;1.00;;;;;;;22.63;67.85;102242.22;4922371;29;20066;-79
2022/06/16 06:32:40;;;;;;;1.08;0.90;;;;;;;22.48;66.37;102243.53;4902568;29;20425;-80
2022/06/16 06:35:10;;;;;;;1.42;0.70;;;;;;;22.31;65.16;102241.25;4848069;29;20040;-79
2022/06/16 06:37:39;;;;;;;3.10;1.20;;;;;;;22.12;64.93;102238.06;4904882;29;20044;-79
2022/06/16 06:40:22;;;;;;;2.78;1.10;;;;;;;21.78;64.36;102242.38;4907468;29;20044;-79
2022/06/16 06:42:50;;;;;;;4.90;1.30;;;;;;;21.51;66.54;102238.50;4905477;29;20687;-80
2022/06/16 06:45:19;;;;;;;4.30;1.15;;;;;;;21.36;65.96;102238.75;4893541;29;20047;-79
2022/06/16 06:47:48;;;;;;;2.03;0.88;;;;;;;21.17;66.00;102238.22;4905231;29;20044;-81
2022/06/16 06:50:24;;;;;;;3.85;1.38;;;;;;;20.96;64.78;102240.41;4872743;29;20049;-79
2022/06/16 06:52:53;;;;;;;2.88;1.00;;;;;;;20.87;66.23;102236.97;4893764;29;20653;-79
2022/06/16 06:55:22;;;;;;;3.58;1.13;;;;;;;20.74;65.36;102241.69;4907183;29;20047;-79
2022/06/16 06:57:52;;;;;;;1.92;0.93;;;;;;;20.61;65.39;102241.88;4904560;29;20055;-79
2022/06/16 07:00:23;;;;;;;4.10;1.25;;;;;;;20.43;65.17;102229.66;4892128;29;20040;-79
2022/06/16 07:02:53;;;;;;;2.42;0.93;;;;;;;20.29;66.76;102237.03;4919108;29;20059;-79
2022/06/16 07:05:22;;;;;;;1.92;0.90;;;;;;;20.19;67.12;102236.28;4874849;29;20044;-79
2022/06/16 07:07:56;;;;;;;2.35;1.00;;;;;;;20.17;67.55;102247.91;4887114;29;20183;-79
2022/06/16 07:10:25;;;;;;;3.33;1.00;;;;;;;20.05;66.43;102246.28;4904017;29;20048;-79
2022/06/16 07:12:55;;;;;;;1.48;0.75;;;;;;;19.89;66.47;102245.63;4899036;29;20207;-79
2022/06/16 07:15:24;;;;;;;2.13;0.93;;;;;;;19.79;66.35;102244.88;4895675;29;20055;-79
2022/06/16 07:17:52;;;;;;;1.85;1.05;;;;;;;19.69;66.54;102245.84;4906048;29;20070;-79
2022/06/16 07:20:21;;;;;;;3.05;0.95;;;;;;;19.67;67.39;102242.31;4889078;29;20048;-79
2022/06/16 07:22:50;;;;;;;1.77;1.00;;;;;;;19.70;67.98;102241.38;4876792;29;20036;-79
2022/06/16 07:25:19;;;;;;;2.90;1.02;;;;;;;19.73;67.65;102236.91;4907194;29;20052;-79
2022/06/16 07:27:47;;;;;;;1.52;0.80;;;;;;;19.76;67.80;102247.56;4903642;29;20166;-79
2022/06/16 07:30:18;;;;;;;2.65;1.20;;;;;;;19.74;65.23;102236.00;4876893;29;20561;-79
2022/06/16 07:32:47;;;;;;;3.97;1.00;;;;;;;19.75;67.30;102240.44;4903979;29;20671;-80
2022/06/16 07:35:21;;;;;;;3.30;1.30;;;;;;;19.75;68.49;102245.78;4915256;29;20044;-79
2022/06/16 07:37:50;;;;;;;1.50;1.20;;;;;;;19.76;68.07;102239.53;4889767;29;20341;-79
2022/06/16 07:40:20;;;;;;;1.42;0.90;;;;;;;19.78;67.14;102251.09;4909075;29;20483;-80
2022/06/16 07:42:49;;;;;;;2.88;0.98;;;;;;;19.72;65.98;102253.88;4874289;29;20055;-80
2022/06/16 07:45:18;;;;;;;1.77;1.00;;;;;;;19.64;65.34;102261.94;4892162;29;20109;-79
2022/06/16 07:47:46;;;;;;;1.80;1.00;;;;;;;19.54;67.28;102267.41;4903478;29;20277;-79
2022/06/16 07:50:14;;;;;;;1.58;0.90;;;;;;;19.52;67.36;102261.22;4876649;29;20437;-79
2022/06/16 07:52:43;;;;;;;3.83;1.05;;;;;;;19.54;69.30;102270.97;4840625;29;20063;-79
2022/06/16 07:55:14;;;;;;;1.13;0.80;;;;;;;19.62;68.63;102284.25;4891943;29;20056;-79
2022/06/16 07:57:46;;;;;;;3.45;1.00;;;;;;;19.61;68.51;102287.84;4872925;29;20143;-79
2022/06/16 08:00:26;;;;;;;2.42;0.80;;;;;;;19.65;69.73;102289.56;4914738;29;20055;-79
2022/06/16 08:02:55;;;;;;;3.35;1.30;;;;;;;19.64;68.98;102293.13;4891909;29;20364;-79
2022/06/16 08:05:24;;;;;;;1.25;1.10;;;;;;;19.60;69.54;102292.31;4893895;29;20055;-80
2022/06/16 08:07:53;;;;;;;4.70;1.30;;;;;;;19.58;69.13;102294.09;4869227;29;20264;-79
2022/06/16 08:10:25;;;;;;;3.00;1.30;;;;;;;19.60;69.65;102289.63;4912593;29;20409;-79
2022/06/16 08:12:54;;;;;;;2.88;1.70;;;;;;;19.65;71.13;102290.44;4892700;29;20044;-81
2022/06/16 08:15:22;;;;;;;1.75;1.20;;;;;;;19.66;71.75;102283.34;4914438;29;20044;-80
2022/06/16 08:17:53;;;;;;;4.72;1.90;;;;;;;19.68;73.32;102281.53;4891895;29;20051;-80
2022/06/16 08:20:22;;;;;;;1.80;1.02;;;;;;;19.73;71.96;102277.00;4912416;29;20056;-80
2022/06/16 08:22:56;;;;;;;4.15;1.55;;;;;;;19.75;71.39;102275.19;4863636;29;20265;-80
2022/06/16 08:25:25;;;;;;;6.20;1.27;;;;;;;19.78;70.92;102268.94;4910488;29;20429;-81
2022/06/16 08:27:55;;;;;;;1.98;1.15;;;;;;;19.83;71.42;102275.13;4892296;29;20161;-80
2022/06/16 08:30:24;;;;;;;3.05;1.52;;;;;;;19.91;72.12;102265.22;4896370;29;20059;-80
2022/06/16 08:32:53;;;;;;;4.57;1.27;;;;;;;19.91;71.35;102275.91;4892989;29;20045;-80
2022/06/16 08:35:21;;;;;;;2.65;1.30;;;;;;;19.85;72.21;102284.03;4895165;29;20296;-80
2022/06/16 08:37:50;;;;;;;1.10;0.98;;;;;;;19.86;71.34;102275.06;4877674;29;22234;-80
2022/06/16 08:40:20;;;;;;;2.70;1.00;;;;;;;19.89;70.61;102287.56;4912935;29;20052;-80
2022/06/16 08:43:05;;;;;;;4.40;1.10;;;;;;;19.80;70.47;102283.19;4907190;29;20044;-79
2022/06/16 08:45:46;;;;;;;2.47;1.20;;;;;;;19.80;72.17;102286.75;4898120;29;20055;-80
2022/06/16 08:48:38;;;;;;;2.90;1.10;;;;;;;19.85;72.09;102292.06;4898041;29;20044;-80
2022/06/16 08:51:10;;;;;;;3.25;0.95;;;;;;;19.90;71.65;102278.59;4912422;29;20056;-80
2022/06/16 08:54:00;;;;;;;3.88;0.93;;;;;;;19.93;71.61;102276.78;4888273;29;20394;-80
2022/06/16 08:56:48;;;;;;;2.50;1.10;;;;;;;20.00;71.26;102272.22;4893847;29;20040;-80
2022/06/16 08:59:31;;;;;;;3.83;1.17;;;;;;;20.03;71.64;102277.53;4921435;29;20074;-80
2022/06/16 09:02:06;;;;;;;1.83;0.90;;;;;;;20.08;72.39;102278.38;4895758;29;20454;-80
2022/06/16 09:04:48;;;;;;;2.50;1.10;;;;;;;20.06;71.14;102275.69;4908033;29;20064;-80
2022/06/16 09:07:38;;;;;;;1.92;1.25;;;;;;;20.06;70.72;102277.50;4915329;29;20082;-80
2022/06/16 09:10:29;;;;;;;3.38;1.13;;;;;;;20.06;70.42;102278.38;4891544;29;20060;-80
2022/06/16 09:12:58;;;;;;;2.28;1.50;;;;;;;20.10;70.33;102283.69;4908933;29;20052;-81
2022/06/16 09:15:40;;;;;;;3.97;1.35;;;;;;;20.15;68.33;102282.72;4907265;29;20044;-81
2022/06/16 09:18:33;;;;;;;2.28;0.82;;;;;;;20.18;68.90;102285.34;4911818;29;20059;-80
2022/06/16 09:21:39;;;;;;;3.42;1.30;;;;;;;20.26;68.45;102295.94;4908133;29;20079;-80
2022/06/16 09:24:18;;;;;;;4.22;1.20;;;;;;;20.34;71.34;102298.50;4868874;29;20059;-81
2022/06/16 09:26:47;;;;;;;1.63;0.90;;;;;;;20.36;70.01;102302.94;4905735;29;20632;-80
2022/06/16 09:29:23;;;;;;;1.98;1.10;;;;;;;20.39;68.29;102294.84;4922101;29;20044;-80
2022/06/16 09:31:59;;;;;;;3.50;1.25;;;;;;;20.41;68.04;102300.19;4905623;29;20048;-80
2022/06/16 09:34:37;;;;;;;1.80;1.10;;;;;;;20.40;67.67;102299.31;4907620;29;20040;-79
2022/06/16 09:37:13;;;;;;;2.85;1.25;;;;;;;20.40;67.14;102287.72;4909023;29;20394;-80
2022/06/16 09:40:02;;;;;;;3.22;1.08;;;;;;;20.45;67.28;102299.22;4871592;29;20052;-81
2022/06/16 09:42:45;;;;;;;3.58;1.35;;;;;;;20.49;67.22;102302.75;4892645;29;20036;-80
2022/06/16 09:45:20;;;;;;;2.55;1.30;;;;;;;20.58;67.40;102311.53;4920061;29;20055;-81
2022/06/16 09:48:04;;;;;;;2.65;1.10;;;;;;;20.58;68.50;102314.19;4905607;29;20706;-80
2022/06/16 09:50:39;;;;;;;4.03;1.10;;;;;;;20.64;68.12;102313.25;4890607;29;20568;-81
2022/06/16 09:53:20;;;;;;;2.05;1.40;;;;;;;20.71;67.84;102319.41;4909008;29;20489;-80
2022/06/16 09:55:59;;;;;;;4.13;1.58;;;;;;;20.72;66.78;102319.41;4875065;29;20066;-81
2022/06/16 09:58:54;;;;;;;3.17;1.30;;;;;;;20.71;67.23;102314.06;4912304;29;20369;-80
2022/06/16 10:01:25;;;;;;;4.15;1.45;;;;;;;20.68;67.33;102315.00;4915617;29;20051;-80
2022/06/16 10:04:01;;;;;;;4.40;1.50;;;;;;;20.64;67.56;102307.91;4905833;29;20074;-80
2022/06/16 10:06:54;;;;;;;5.78;1.33;;;;;;;20.67;67.79;102315.03;4891365;29;20056;-80
2022/06/16 10:09:51;;;;;;;4.60;1.30;;;;;;;20.70;67.31;102315.84;4879120;29;20049;-80
2022/06/16 10:12:49;;;;;;;3.35;1.00;;;;;;;20.79;65.85;102323.75;4897996;29;20040;-80
2022/06/16 10:15:20;;;;;;;3.35;1.23;;;;;;;20.84;65.89;102321.00;4908165;29;20040;-80
2022/06/16 10:17:51;;;;;;;7.95;1.48;;;;;;;20.88;65.73;102322.69;4905382;29;20365;-80
2022/06/16 10:20:21;;;;;;;2.60;1.20;;;;;;;20.93;65.06;102331.56;4908895;29;20032;-80
2022/06/16 10:22:57;;;;;;;3.40;1.27;;;;;;;20.98;66.47;102318.97;4889529;29;20247;-80
2022/06/16 10:25:35;;;;;;;3.72;1.42;;;;;;;21.09;63.40;102325.94;4918048;29;20502;-80
2022/06/16 10:28:27;;;;;;;8.23;1.65;;;;;;;21.06;60.74;102331.34;4900787;29;20041;-80
2022/06/16 10:30:58;;;;;;;3.17;1.25;;;;;;;21.03;63.29;102333.16;4905525;29;20040;-80
2022/06/16 10:33:29;;;;;;;5.22;1.40;;;;;;;21.11;63.80;102335.69;4909413;29;20510;-80
2022/06/16 10:36:16;;;;;;;3.97;1.50;;;;;;;21.24;63.17;102341.75;4874877;29;20071;-80
2022/06/16 10:39:08;;;;;;;1.52;1.33;;;;;;;21.35;63.21;102354.97;4904744;29;20258;-80
2022/06/16 10:42:04;;;;;;;2.92;1.50;;;;;;;21.42;63.51;102356.63;4875785;29;20036;-80
2022/06/16 10:44:33;;;;;;;1.10;1.02;;;;;;;21.54;62.89;102352.88;4902953;29;20052;-80
2022/06/16 10:47:06;;;;;;;1.90;1.43;;;;;;;21.61;61.99;102355.41;4907588;29;20364;-80
2022/06/16 10:49:39;;;;;;;3.63;1.40;;;;;;;21.66;62.65;102355.28;4905961;29;20044;-80
2022/06/16 10:52:14;;;;;;;4.03;1.50;;;;;;;21.68;61.28;102368.69;4910538;29;20055;-79
2022/06/16 10:54:58;;;;;;;1.33;1.10;;;;;;;21.71;60.85;102357.91;4889337;29;20052;-80
2022/06/16 10:57:30;;;;;;;3.60;1.48;;;;;;;21.74;62.27;102356.06;4878446;29;20051;-80
2022/06/16 11:00:14;;;;;;;2.35;1.70;;;;;;;21.84;60.15;102347.81;4906558;29;20133;-80
2022/06/16 11:03:04;;;;;;;2.20;1.40;;;;;;;21.90;61.01;102355.75;4918380;29;20039;-80
2022/06/16 11:05:47;;;;;;;4.47;1.95;;;;;;;21.97;61.21;102352.03;4906301;29;20047;-80
2022/06/16 11:08:16;;;;;;;3.38;1.42;;;;;;;22.08;61.24;102347.31;4892395;29;20510;-80
2022/06/16 11:11:05;;;;;;;4.32;1.50;;;;;;;22.21;61.29;102350.59;4888688;29;20048;-80
2022/06/16 11:13:37;;;;;;;3.28;1.50;;;;;;;22.25;61.21;102354.09;4862158;29;20052;-81
2022/06/16 11:16:10;;;;;;;2.35;1.45;;;;;;;22.31;60.43;102362.09;4908770;29;20056;-80
2022/06/16 11:18:39;;;;;;;2.90;1.55;;;;;;;22.35;60.45;102355.72;4889352;29;20040;-81
2022/06/16 11:21:20;;;;;;;7.63;1.60;;;;;;;22.37;59.87;102359.25;4908306;29;20055;-81
2022/06/16 11:23:51;;;;;;;3.53;1.60;;;;;;;22.43;60.32;102363.59;4903215;29;20048;-80
2022/06/16 11:26:41;;;;;;;4.57;1.77;;;;;;;22.49;60.18;102364.31;4907989;29;20059;-80
2022/06/16 11:29:10;;;;;;;4.43;1.58;;;;;;;22.48;59.78;102362.59;4874544;29;20075;-80
2022/06/16 11:31:48;;;;;;;4.88;1.95;;;;;;;22.50;59.26;102367.91;4918512;28;20048;-80
2022/06/16 11:34:24;;;;;;;2.60;1.50;;;;;;;22.50;58.45;102371.47;4909108;29;20540;-80
2022/06/16 11:37:05;;;;;;;3.17;1.45;;;;;;;22.51;59.51;102370.56;4889854;29;20044;-80
2022/06/16 11:39:55;;;;;;;1.73;1.30;;;;;;;22.60;59.36;102371.28;4906024;29;20536;-80
2022/06/16 11:42:57;;;;;;;4.10;1.60;;;;;;;22.62;58.37;102370.31;4897564;29;20059;-80
2022/06/16 11:45:51;;;;;;;2.15;1.60;;;;;;;22.63;58.12;102371.19;4895921;29;20063;-80
2022/06/16 11:48:38;;;;;;;3.13;1.70;;;;;;;22.66;59.18;102372.00;4908101;29;20040;-80
2022/06/16 11:51:15;;;;;;;3.70;1.48;;;;;;;22.76;59.89;102378.06;4905824;29;20394;-80
2022/06/16 11:54:13;;;;;;;3.17;1.45;;;;;;;22.81;58.35;102373.44;4886587;29;20075;-81
2022/06/16 11:56:48;;;;;;;2.45;1.65;;;;;;;22.77;58.18;102377.13;4904425;29;20044;-81
2022/06/16 11:59:47;;;;;;;2.53;1.60;;;;;;;22.77;56.72;102390.56;4870006;29;20040;-80
2022/06/16 12:02:36;;;;;;;6.18;1.92;;;;;;;22.90;59.02;102380.41;4898368;29;20052;-81
2022/06/16 12:05:27;;;;;;;2.03;1.42;;;;;;;23.05;58.99;102379.19;4906294;29;20720;-81
2022/06/16 12:08:38;;;;;;;8.77;1.55;;;;;;;23.13;53.99;102385.25;4898944;29;20044;-79
2022/06/16 12:11:16;;;;;;;4.25;1.40;;;;;;;23.12;55.56;102383.50;4872156;29;20067;-81
2022/06/16 12:13:56;;;;;;;2.92;1.35;;;;;;;23.22;56.37;102389.53;4854781;29;20297;-79
2022/06/16 12:17:09;;;;;;;1.60;1.50;;;;;;;23.30;57.49;102395.59;4896403;29;20056;-81
2022/06/16 12:20:02;;;;;;;3.97;1.50;;;;;;;23.33;56.88;102393.69;4881689;29;20052;-80
2022/06/16 12:23:40;;;;;;;5.07;1.33;;;;;;;23.39;57.57;102387.28;4904295;29;20055;-80